Time;durP1;ratioP1;P1;durP2;ratioP2;P2;SDS_P1;SDS_P2;PMS_P1;PMS_P2;Temp;Humidity;BMP_temperature;BMP_pressure;BME280_temperature;BME280_humidity;BME280_pressure;Samples;Min_cycle;Max_cycle;Signal;HPM_P1;HPM_P2
2024/01/02 00:01:29;;;;;;;;;;;;;;;;;;5043062;28;4497;-64
2024/01/02 00:03:54;;;;;;;;;;;;;;;;;;5039935;28;5376;-65
2024/01/02 00:06:19;;;;;;;;;;;;;;;;;;5038202;28;4577;-67
2024/01/02 00:08:46;;;;;;;;;;;;;;;;;;5040633;28;3423;-65
2024/01/02 00:11:11;;;;;;;;;;;;;;;;;;5036706;28;4644;-66
2024/01/02 00:13:37;;;;;;;;;;;;;;;;;;5038117;28;5723;-65
2024/01/02 00:16:02;;;;;;;;;;;;;;;;;;5045308;28;4491;-66
2024/01/02 00:18:27;;;;;;;;;;;;;;;;;;5020668;28;5100;-66
2024/01/02 00:20:53;;;;;;;;;;;;;;;;;;5038995;28;3460;-66
2024/01/02 00:23:18;;;;;;;;;;;;;;;;;;5027348;28;5170;-65
2024/01/02 00:25:43;;;;;;;;;;;;;;;;;;5039015;28;5140;-64
2024/01/02 00:28:09;;;;;;;;;;;;;;;;;;5026205;28;5185;-66
2024/01/02 00:30:34;;;;;;;;;;;;;;;;;;5047380;28;4827;-65
2024/01/02 00:33:03;;;;;;;;;;;;;;;;;;5046361;28;3439;-66
2024/01/02 00:35:29;;;;;;;;;;;;;;;;;;5043083;28;5046;-65
2024/01/02 00:37:54;;;;;;;;;;;;;;;;;;5041424;28;5197;-66
2024/01/02 00:40:19;;;;;;;;;;;;;;;;;;5036209;28;4576;-66
2024/01/02 00:42:44;;;;;;;;;;;;;;;;;;5044282;28;5067;-65
2024/01/02 00:45:10;;;;;;;;;;;;;;;;;;5041245;28;3554;-66
2024/01/02 00:47:35;;;;;;;;;;;;;;;;;;5043152;28;4445;-66
2024/01/02 00:50:00;;;;;;;;;;;;;;;;;;5042460;28;4512;-64
2024/01/02 00:52:25;;;;;;;;;;;;;;;;;;5035576;28;5120;-65
2024/01/02 00:54:52;;;;;;;;;;;;;;;;;;5044973;28;5080;-61
2024/01/02 00:57:17;;;;;;;;;;;;;;;;;;5042977;28;4735;-64
2024/01/02 00:59:42;;;;;;;;;;;;;;;;;;5044953;28;3918;-65
2024/01/02 01:02:08;;;;;;;;;;;;;;;;;;5037711;28;5243;-65
2024/01/02 01:04:33;;;;;;;;;;;;;;;;;;5038459;28;5052;-63
2024/01/02 01:06:59;;;;;;;;;;;;;;;;;;5042853;28;5156;-66
2024/01/02 01:09:24;;;;;;;;;;;;;;;;;;5040226;28;5168;-67
2024/01/02 01:11:49;;;;;;;;;;;;;;;;;;5043921;28;3463;-66
2024/01/02 01:14:15;;;;;;;;;;;;;;;;;;5025565;28;4967;-66
2024/01/02 01:16:40;;;;;;;;;;;;;;;;;;5044797;28;4708;-65
2024/01/02 01:19:05;;;;;;;;;;;;;;;;;;5040462;28;4937;-65
2024/01/02 01:21:31;;;;;;;;;;;;;;;;;;5046058;28;4679;-66
2024/01/02 01:23:57;;;;;;;;;;;;;;;;;;5039747;28;3431;-66
2024/01/02 01:26:22;;;;;;;;;;;;;;;;;;5039030;28;5234;-68
2024/01/02 01:28:47;;;;;;;;;;;;;;;;;;5044927;28;5123;-66
2024/01/02 01:31:12;;;;;;;;;;;;;;;;;;5037324;28;5246;-66
2024/01/02 01:33:39;;;;;;;;;;;;;;;;;;5040070;28;5121;-67
2024/01/02 01:36:05;;;;;;;;;;;;;;;;;;5040419;28;3418;-67
2024/01/02 01:38:30;;;;;;;;;;;;;;;;;;5044901;28;5049;-68
2024/01/02 01:40:55;;;;;;;;;;;;;;;;;;5043197;28;5343;-67
2024/01/02 01:43:21;;;;;;;;;;;;;;;;;;5045959;28;5111;-64
2024/01/02 01:45:46;;;;;;;;;;;;;;;;;;5042297;28;5158;-63
2024/01/02 01:48:12;;;;;;;;;;;;;;;;;;5040442;28;3537;-66
2024/01/02 01:50:37;;;;;;;;;;;;;;;;;;5040430;28;5965;-64
2024/01/02 01:53:02;;;;;;;;;;;;;;;;;;5040323;28;5050;-66
2024/01/02 01:55:28;;;;;;;;;;;;;;;;;;5022237;28;4549;-66
2024/01/02 01:57:53;;;;;;;;;;;;;;;;;;5023583;28;4778;-66
2024/01/02 02:00:19;;;;;;;;;;;;;;;;;;5044833;28;4721;-65
2024/01/02 02:02:44;;;;;;;;;;;;;;;;;;5042320;28;3359;-65
2024/01/02 02:05:10;;;;;;;;;;;;;;;;;;5044006;28;4506;-65
2024/01/02 02:07:40;;;;;;;;;;;;;;;;;;5044123;28;5120;-65
2024/01/02 02:10:06;;;;;;;;;;;;;;;;;;5042209;28;5115;-65
2024/01/02 02:12:31;;;;;;;;;;;;;;;;;;5039595;28;5046;-65
2024/01/02 02:14:56;;;;;;;;;;;;;;;;;;5045061;28;3423;-66
2024/01/02 02:17:22;;;;;;;;;;;;;;;;;;5035196;28;4533;-64
2024/01/02 02:19:47;;;;;;;;;;;;;;;;;;5042305;28;5738;-66
2024/01/02 02:22:13;;;;;;;;;;;;;;;;;;5027692;28;5120;-67
2024/01/02 02:24:38;;;;;;;;;;;;;;;;;;5044167;28;5223;-66
2024/01/02 02:27:04;;;;;;;;;;;;;;;;;;5035107;28;5223;-66
2024/01/02 02:29:29;;;;;;;;;;;;;;;;;;5046397;28;4501;-66
2024/01/02 02:31:55;;;;;;;;;;;;;;;;;;5039928;28;5105;-66
2024/01/02 02:34:20;;;;;;;;;;;;;;;;;;5043507;28;6102;-65
2024/01/02 02:36:45;;;;;;;;;;;;;;;;;;5047009;28;5054;-65
2024/01/02 02:39:11;;;;;;;;;;;;;;;;;;5047359;28;3308;-66
2024/01/02 02:41:36;;;;;;;;;;;;;;;;;;5044432;28;5061;-66
2024/01/02 02:44:01;;;;;;;;;;;;;;;;;;5045006;28;5177;-67
2024/01/02 02:46:26;;;;;;;;;;;;;;;;;;5043193;28;4538;-65
2024/01/02 02:48:52;;;;;;;;;;;;;;;;;;5045913;28;4882;-65
2024/01/02 02:51:17;;;;;;;;;;;;;;;;;;5047657;28;5060;-65
2024/01/02 02:53:43;;;;;;;;;;;;;;;;;;5047381;28;3648;-65
2024/01/02 02:56:13;;;;;;;;;;;;;;;;;;5046289;28;5199;-65
2024/01/02 02:58:38;;;;;;;;;;;;;;;;;;5042543;28;5018;-66
2024/01/02 03:01:04;;;;;;;;;;;;;;;;;;5018813;28;4817;-66
2024/01/02 03:03:29;;;;;;;;;;;;;;;;;;5039010;28;4945;-66
2024/01/02 03:05:55;;;;;;;;;;;;;;;;;;5047955;28;1286;-66
2024/01/02 03:08:20;;;;;;;;;;;;;;;;;;5045666;28;5043;-65
2024/01/02 03:10:45;;;;;;;;;;;;;;;;;;5045706;28;4642;-65
2024/01/02 03:13:10;;;;;;;;;;;;;;;;;;5044409;28;5061;-65
2024/01/02 03:15:36;;;;;;;;;;;;;;;;;;5037125;28;5148;-66
2024/01/02 03:18:01;;;;;;;;;;;;;;;;;;5045697;28;3457;-66
2024/01/02 03:20:26;;;;;;;;;;;;;;;;;;5038659;28;5260;-64
2024/01/02 03:22:52;;;;;;;;;;;;;;;;;;5037592;28;5024;-64
2024/01/02 03:25:18;;;;;;;;;;;;;;;;;;5042126;28;5079;-67
2024/01/02 03:27:43;;;;;;;;;;;;;;;;;;5042067;28;5216;-67
2024/01/02 03:30:08;;;;;;;;;;;;;;;;;;5039229;28;1262;-67
2024/01/02 03:32:34;;;;;;;;;;;;;;;;;;5040675;28;5004;-65
2024/01/02 03:34:59;;;;;;;;;;;;;;;;;;5042681;28;4544;-65
2024/01/02 03:37:24;;;;;;;;;;;;;;;;;;5043655;28;4825;-67
2024/01/02 03:39:50;;;;;;;;;;;;;;;;;;5016063;28;5014;-66
2024/01/02 03:42:15;;;;;;;;;;;;;;;;;;5046504;28;4714;-67
2024/01/02 03:44:40;;;;;;;;;;;;;;;;;;5042587;28;3314;-67
2024/01/02 03:47:05;;;;;;;;;;;;;;;;;;5033231;28;5193;-67
2024/01/02 03:49:31;;;;;;;;;;;;;;;;;;5041484;28;5514;-65
2024/01/02 03:51:56;;;;;;;;;;;;;;;;;;5042007;28;5079;-66
2024/01/02 03:54:21;;;;;;;;;;;;;;;;;;5041200;28;5146;-64
2024/01/02 03:56:47;;;;;;;;;;;;;;;;;;5041419;28;3347;-66
2024/01/02 03:59:12;;;;;;;;;;;;;;;;;;5043562;28;4643;-66
2024/01/02 04:01:44;;;;;;;;;;;;;;;;;;5041821;28;5167;-65
2024/01/02 04:04:09;;;;;;;;;;;;;;;;;;5043523;28;5139;-66
2024/01/02 04:06:34;;;;;;;;;;;;;;;;;;5010294;28;5148;-66
2024/01/02 04:09:00;;;;;;;;;;;;;;;;;;5043027;28;1394;-64
2024/01/02 04:11:25;;;;;;;;;;;;;;;;;;5041992;28;4754;-65
2024/01/02 04:13:50;;;;;;;;;;;;;;;;;;5046004;28;4715;-66
2024/01/02 04:16:16;;;;;;;;;;;;;;;;;;5045677;28;5355;-66
2024/01/02 04:18:41;;;;;;;;;;;;;;;;;;5044770;28;5101;-65
2024/01/02 04:21:06;;;;;;;;;;;;;;;;;;5036987;28;3667;-66
2024/01/02 04:23:32;;;;;;;;;;;;;;;;;;5044814;28;4470;-66
2024/01/02 04:25:57;;;;;;;;;;;;;;;;;;5040270;28;4936;-67
2024/01/02 04:28:22;;;;;;;;;;;;;;;;;;5036503;28;5178;-66
2024/01/02 04:30:48;;;;;;;;;;;;;;;;;;5045479;28;5104;-66
2024/01/02 04:33:13;;;;;;;;;;;;;;;;;;5047154;28;1172;-67
2024/01/02 04:35:38;;;;;;;;;;;;;;;;;;5045346;28;4916;-65
2024/01/02 04:38:03;;;;;;;;;;;;;;;;;;5038735;28;4920;-66
2024/01/02 04:40:29;;;;;;;;;;;;;;;;;;5040180;28;4514;-66
2024/01/02 04:42:54;;;;;;;;;;;;;;;;;;5023914;28;5391;-67
2024/01/02 04:45:20;;;;;;;;;;;;;;;;;;5041566;28;5336;-65
2024/01/02 04:47:46;;;;;;;;;;;;;;;;;;5046245;28;3418;-66
2024/01/02 04:50:11;;;;;;;;;;;;;;;;;;5045028;28;5130;-65
2024/01/02 04:52:36;;;;;;;;;;;;;;;;;;5033128;28;5229;-63
2024/01/02 04:55:02;;;;;;;;;;;;;;;;;;5024590;28;5075;-66
2024/01/02 04:57:27;;;;;;;;;;;;;;;;;;5042243;28;5070;-66
2024/01/02 04:59:52;;;;;;;;;;;;;;;;;;5045203;28;3377;-66
2024/01/02 05:02:22;;;;;;;;;;;;;;;;;;5041377;28;5236;-64
2024/01/02 05:04:48;;;;;;;;;;;;;;;;;;5044616;28;4516;-66
2024/01/02 05:07:13;;;;;;;;;;;;;;;;;;5047064;28;5134;-65
2024/01/02 05:09:39;;;;;;;;;;;;;;;;;;5047044;28;5087;-65
2024/01/02 05:12:04;;;;;;;;;;;;;;;;;;5039754;28;1145;-64
2024/01/02 05:14:30;;;;;;;;;;;;;;;;;;5042797;28;4934;-66
2024/01/02 05:16:55;;;;;;;;;;;;;;;;;;5034565;28;4481;-67
2024/01/02 05:19:20;;;;;;;;;;;;;;;;;;5043796;28;4752;-66
2024/01/02 05:21:46;;;;;;;;;;;;;;;;;;5045001;28;5103;-67
2024/01/02 05:24:11;;;;;;;;;;;;;;;;;;5047838;28;1089;-66
2024/01/02 05:26:36;;;;;;;;;;;;;;;;;;5047347;28;5190;-66
2024/01/02 05:29:02;;;;;;;;;;;;;;;;;;5044424;28;5145;-65
2024/01/02 05:31:27;;;;;;;;;;;;;;;;;;5046393;28;5153;-66
2024/01/02 05:33:52;;;;;;;;;;;;;;;;;;5046620;28;5096;-66
2024/01/02 05:36:17;;;;;;;;;;;;;;;;;;5048472;28;5157;-65
2024/01/02 05:38:43;;;;;;;;;;;;;;;;;;5042360;28;3687;-65
2024/01/02 05:41:08;;;;;;;;;;;;;;;;;;5046452;28;5803;-66
2024/01/02 05:43:34;;;;;;;;;;;;;;;;;;5040144;28;5123;-65
2024/01/02 05:45:59;;;;;;;;;;;;;;;;;;5047623;28;4994;-67
2024/01/02 05:48:24;;;;;;;;;;;;;;;;;;5048046;28;4787;-66
2024/01/02 05:50:50;;;;;;;;;;;;;;;;;;5046941;28;3379;-66
2024/01/02 05:53:15;;;;;;;;;;;;;;;;;;5041421;28;5071;-66
2024/01/02 05:55:40;;;;;;;;;;;;;;;;;;5045690;28;4648;-67
2024/01/02 05:58:06;;;;;;;;;;;;;;;;;;5044951;28;4581;-66
2024/01/02 06:00:31;;;;;;;;;;;;;;;;;;5045191;28;5173;-66
2024/01/02 06:02:56;;;;;;;;;;;;;;;;;;5049660;28;1169;-66
2024/01/02 06:05:22;;;;;;;;;;;;;;;;;;5047109;28;4676;-67
2024/01/02 06:07:47;;;;;;;;;;;;;;;;;;5045729;28;5163;-67
2024/01/02 06:10:12;;;;;;;;;;;;;;;;;;5024042;28;4532;-67
2024/01/02 06:12:37;;;;;;;;;;;;;;;;;;5047798;28;5076;-66
2024/01/02 06:15:03;;;;;;;;;;;;;;;;;;5046781;28;1374;-66
2024/01/02 06:17:29;;;;;;;;;;;;;;;;;;5043834;28;4850;-66
2024/01/02 06:19:54;;;;;;;;;;;;;;;;;;5045606;28;4684;-67
2024/01/02 06:22:20;;;;;;;;;;;;;;;;;;5047274;28;5233;-66
2024/01/02 06:24:45;;;;;;;;;;;;;;;;;;5044971;28;4957;-66
2024/01/02 06:27:10;;;;;;;;;;;;;;;;;;5046683;28;4873;-66
2024/01/02 06:29:35;;;;;;;;;;;;;;;;;;5045998;28;5079;-66
2024/01/02 06:32:02;;;;;;;;;;;;;;;;;;5044123;28;5087;-66
2024/01/02 06:34:27;;;;;;;;;;;;;;;;;;5044180;28;5307;-66
2024/01/02 06:36:53;;;;;;;;;;;;;;;;;;5044467;28;5082;-67
2024/01/02 06:39:18;;;;;;;;;;;;;;;;;;5042122;28;5189;-67
2024/01/02 06:41:44;;;;;;;;;;;;;;;;;;5046610;28;3883;-65
2024/01/02 06:44:10;;;;;;;;;;;;;;;;;;5045669;28;4516;-65
2024/01/02 06:46:35;;;;;;;;;;;;;;;;;;5040742;28;4981;-67
2024/01/02 06:49:01;;;;;;;;;;;;;;;;;;5042001;28;5216;-65
2024/01/02 06:51:29;;;;;;;;;;;;;;;;;;5045125;28;5905;-66
2024/01/02 06:53:54;;;;;;;;;;;;;;;;;;5044405;28;3383;-64
2024/01/02 06:56:19;;;;;;;;;;;;;;;;;;5041409;28;5110;-65
2024/01/02 06:58:44;;;;;;;;;;;;;;;;;;5040745;28;5344;-64
2024/01/02 07:01:12;;;;;;;;;;;;;;;;;;5044757;28;5073;-67
2024/01/02 07:03:38;;;;;;;;;;;;;;;;;;5045046;28;5489;-66
2024/01/02 07:06:03;;;;;;;;;;;;;;;;;;5043552;28;3280;-66
2024/01/02 07:08:29;;;;;;;;;;;;;;;;;;5040919;28;5687;-66
2024/01/02 07:10:54;;;;;;;;;;;;;;;;;;5039991;28;5069;-65
2024/01/02 07:13:19;;;;;;;;;;;;;;;;;;5034913;28;4776;-64
2024/01/02 07:15:44;;;;;;;;;;;;;;;;;;5037587;28;5031;-66
2024/01/02 07:18:11;;;;;;;;;;;;;;;;;;5039207;28;3350;-62
2024/01/02 07:20:37;;;;;;;;;;;;;;;;;;5041445;28;4982;-65
2024/01/02 07:23:02;;;;;;;;;;;;;;;;;;5042301;28;5021;-65
2024/01/02 07:25:27;;;;;;;;;;;;;;;;;;5039691;28;5095;-65
2024/01/02 07:27:53;;;;;;;;;;;;;;;;;;5027287;28;5024;-66
2024/01/02 07:30:18;;;;;;;;;;;;;;;;;;5022355;28;4963;-70
2024/01/02 07:32:43;;;;;;;;;;;;;;;;;;5038345;28;3646;-68
2024/01/02 07:35:08;;;;;;;;;;;;;;;;;;5037946;28;4581;-67
2024/01/02 07:37:34;;;;;;;;;;;;;;;;;;5041038;28;4633;-68
2024/01/02 07:39:59;;;;;;;;;;;;;;;;;;5034442;28;5001;-67
2024/01/02 07:42:24;;;;;;;;;;;;;;;;;;5036714;28;4727;-67
2024/01/02 07:44:50;;;;;;;;;;;;;;;;;;5038666;28;2520;-66
2024/01/02 07:47:16;;;;;;;;;;;;;;;;;;5010763;28;5143;-68
2024/01/02 07:49:42;;;;;;;;;;;;;;;;;;5043659;28;4908;-69
2024/01/02 07:52:07;;;;;;;;;;;;;;;;;;5045001;28;4899;-67
2024/01/02 07:54:35;;;;;;;;;;;;;;;;;;5043614;28;4590;-65
2024/01/02 07:57:01;;;;;;;;;;;;;;;;;;5038346;28;3590;-68
2024/01/02 07:59:26;;;;;;;;;;;;;;;;;;5023036;28;4868;-69
2024/01/02 08:01:51;;;;;;;;;;;;;;;;;;5041877;28;5117;-65
2024/01/02 08:04:17;;;;;;;;;;;;;;;;;;5038550;28;4907;-65
2024/01/02 08:06:42;;;;;;;;;;;;;;;;;;5040476;28;5907;-66
2024/01/02 08:09:07;;;;;;;;;;;;;;;;;;5036147;28;3623;-60
2024/01/02 08:11:33;;;;;;;;;;;;;;;;;;5033404;28;5185;-61
2024/01/02 08:13:58;;;;;;;;;;;;;;;;;;5043168;28;4731;-63
2024/01/02 08:16:23;;;;;;;;;;;;;;;;;;5039460;28;4891;-60
2024/01/02 08:18:48;;;;;;;;;;;;;;;;;;5034966;28;5244;-59
2024/01/02 08:21:14;;;;;;;;;;;;;;;;;;5037272;28;5057;-64
2024/01/02 08:23:39;;;;;;;;;;;;;;;;;;5046576;28;3255;-61
2024/01/02 08:26:10;;;;;;;;;;;;;;;;;;5038328;28;4536;-64
2024/01/02 08:28:36;;;;;;;;;;;;;;;;;;5021598;28;5262;-64
2024/01/02 08:31:01;;;;;;;;;;;;;;;;;;5028247;28;4553;-63
2024/01/02 08:33:26;;;;;;;;;;;;;;;;;;5003136;28;4699;-62
2024/01/02 08:35:52;;;;;;;;;;;;;;;;;;5019190;28;3817;-63
2024/01/02 08:38:17;;;;;;;;;;;;;;;;;;5023549;28;5184;-65
2024/01/02 08:40:43;;;;;;;;;;;;;;;;;;5027517;28;5278;-64
2024/01/02 08:43:09;;;;;;;;;;;;;;;;;;5023662;28;4566;-64
2024/01/02 08:45:34;;;;;;;;;;;;;;;;;;5023998;28;5131;-64
2024/01/02 08:47:59;;;;;;;;;;;;;;;;;;5023895;28;1090;-63
2024/01/02 08:50:25;;;;;;;;;;;;;;;;;;5023794;28;4473;-64
2024/01/02 08:52:52;;;;;;;;;;;;;;;;;;5025498;28;4671;-64
2024/01/02 08:55:17;;;;;;;;;;;;;;;;;;5024549;28;4517;-65
2024/01/02 08:57:43;;;;;;;;;;;;;;;;;;5025406;28;5063;-64
2024/01/02 09:00:08;;;;;;;;;;;;;;;;;;5019850;28;1983;-62
2024/01/02 09:02:33;;;;;;;;;;;;;;;;;;5030395;28;4984;-65
2024/01/02 09:04:59;;;;;;;;;;;;;;;;;;5025553;28;4724;-64
2024/01/02 09:07:24;;;;;;;;;;;;;;;;;;5025337;28;5197;-64
2024/01/02 09:09:49;;;;;;;;;;;;;;;;;;5019129;28;4777;-64
2024/01/02 09:12:15;;;;;;;;;;;;;;;;;;5023524;28;4521;-64
2024/01/02 09:14:40;;;;;;;;;;;;;;;;;;5024043;28;3574;-64
2024/01/02 09:17:05;;;;;;;;;;;;;;;;;;5021074;28;4596;-65
2024/01/02 09:19:30;;;;;;;;;;;;;;;;;;5021033;28;4658;-64
2024/01/02 09:21:56;;;;;;;;;;;;;;;;;;5021865;28;4547;-64
2024/01/02 09:24:21;;;;;;;;;;;;;;;;;;5023950;28;5201;-66
2024/01/02 09:26:46;;;;;;;;;;;;;;;;;;5010643;28;5386;-64
2024/01/02 09:29:12;;;;;;;;;;;;;;;;;;5025332;28;5101;-63
2024/01/02 09:31:39;;;;;;;;;;;;;;;;;;5040457;28;4713;-66
2024/01/02 09:34:05;;;;;;;;;;;;;;;;;;5043889;28;5030;-65
2024/01/02 09:36:30;;;;;;;;;;;;;;;;;;5039420;28;5251;-65
2024/01/02 09:42:15;;;;;;;;;;;;;;;;;;5099772;27;2559;-39
2024/01/02 09:44:56;;;;;;;;;;;;;;;;;;5060281;28;5058;-39
2024/01/02 09:47:40;;;;;;;;;;;;;;;;;;5053147;28;4554;-41
2024/01/02 09:50:33;;;;;;;;;;;;;;;;;;5052148;28;4568;-38
2024/01/02 09:53:02;;;;;;;;;;;;;;;;;;5056593;28;5033;-41
2024/01/02 09:55:30;;;;;;;;;;;;;;;;;;5058305;28;5476;-42
2024/01/02 09:58:04;;;;;;;;;;;;;;;;;;5060992;28;5173;-42
2024/01/02 10:00:38;;;;;;;;;;;;;;;;;;5058826;28;4946;-40
2024/01/02 10:03:07;;;;;;;;;;;;;;;;;;5051577;28;3276;-37
2024/01/02 10:05:36;;;;;;;;;;;;;;;;;;5055951;28;4610;-40
2024/01/02 10:08:01;;;;;;;;;;;;;;;;;;5059675;28;5084;-38
2024/01/02 10:10:36;;;;;;;;;;;;;;;;;;5049428;28;4658;-39
2024/01/02 10:13:02;;;;;;;;;;;;;;;;;;5053511;28;5443;-39
2024/01/02 10:15:28;;;;;;;;;;;;;;;;;;5059420;28;4633;-38
2024/01/02 10:17:58;;;;;;;;;;;;;;;;;;5053910;28;3243;-42
2024/01/02 10:20:24;;;;;;;;;;;;;;;;;;5059235;28;5170;-40
2024/01/02 10:23:07;;;;;;;;;;;;;;;;;;5061775;28;5113;-38
2024/01/02 10:25:33;;;;;;;;;;;;;;;;;;5060584;28;5088;-38
2024/01/02 10:27:58;;;;;;;;;;;;;;;;;;5063342;28;5145;-38
2024/01/02 10:30:23;;;;;;;;;;;;;;;;;;5065434;28;5125;-38
2024/01/02 10:33:07;;;;;;;;;;;;;;;;;;5060256;28;1345;-37
2024/01/02 10:35:33;;;;;;;;;;;;;;;;;;5055508;28;5048;-38
2024/01/02 10:38:04;;;;;;;;;;;;;;;;;;5058290;28;5191;-37
2024/01/02 10:40:30;;;;;;;;;;;;;;;;;;5061735;28;5064;-44
2024/01/02 10:43:17;;;;;;;;;;;;;;;;;;5062817;28;4988;-38
2024/01/02 10:45:50;;;;;;;;;;;;;;;;;;5049675;28;5079;-38
2024/01/02 10:48:28;;;;;;;;;;;;;;;;;;5054844;28;5175;-38
2024/01/02 10:51:08;;;;;;;;;;;;;;;;;;5064035;28;3354;-41
2024/01/02 10:53:45;;;;;;;;;;;;;;;;;;5047839;28;5075;-38
2024/01/02 10:56:13;;;;;;;;;;;;;;;;;;5047694;28;4441;-38
2024/01/02 10:58:41;;;;;;;;;;;;;;;;;;5047390;28;4455;-38
2024/01/02 11:01:06;;;;;;;;;;;;;;;;;;5051004;28;5052;-38
2024/01/02 11:03:40;;;;;;;;;;;;;;;;;;5048331;28;4672;-38
2024/01/02 11:06:10;;;;;;;;;;;;;;;;;;5044087;28;3528;-37
2024/01/02 11:08:41;;;;;;;;;;;;;;;;;;5048695;28;4941;-39
2024/01/02 11:11:08;;;;;;;;;;;;;;;;;;5054771;28;5232;-38
2024/01/02 11:13:36;;;;;;;;;;;;;;;;;;5048032;28;5041;-41
2024/01/02 11:16:33;;;;;;;;;;;;;;;;;;5043578;28;4663;-39
2024/01/02 11:18:59;;;;;;;;;;;;;;;;;;5026828;28;5417;-41
2024/01/02 11:21:30;;;;;;;;;;;;;;;;;;5048824;28;4708;-38
2024/01/02 11:23:55;;;;;;;;;;;;;;;;;;5044815;28;3464;-41
2024/01/02 11:26:22;;;;;;;;;;;;;;;;;;5048861;28;4473;-39
2024/01/02 11:28:47;;;;;;;;;;;;;;;;;;5049475;28;4434;-38
2024/01/02 11:31:13;;;;;;;;;;;;;;;;;;5048213;28;5192;-40
2024/01/02 11:33:44;;;;;;;;;;;;;;;;;;5052139;28;5425;-37
2024/01/02 11:36:09;;;;;;;;;;;;;;;;;;5049711;28;3342;-40
2024/01/02 11:38:51;;;;;;;;;;;;;;;;;;5047949;28;4990;-38
2024/01/02 11:41:37;;;;;;;;;;;;;;;;;;5055079;28;4470;-39
2024/01/02 11:44:21;;;;;;;;;;;;;;;;;;5053560;28;5048;-38
2024/01/02 11:46:48;;;;;;;;;;;;;;;;;;5046970;28;5124;-40
2024/01/02 11:49:16;;;;;;;;;;;;;;;;;;5048812;28;4899;-39
2024/01/02 11:51:42;;;;;;;;;;;;;;;;;;5039000;28;4523;-39
2024/01/02 11:54:13;;;;;;;;;;;;;;;;;;5045205;28;997;-38
2024/01/02 11:56:38;;;;;;;;;;;;;;;;;;5059670;28;4854;-40
2024/01/02 11:59:04;;;;;;;;;;;;;;;;;;5045554;28;4989;-40
2024/01/02 12:01:47;;;;;;;;;;;;;;;;;;5042966;28;4670;-39
2024/01/02 12:04:13;;;;;;;;;;;;;;;;;;5052067;28;4993;-39
2024/01/02 12:06:43;;;;;;;;;;;;;;;;;;5048359;28;5136;-38
2024/01/02 12:09:11;;;;;;;;;;;;;;;;;;5042244;28;3338;-42
2024/01/02 12:11:38;;;;;;;;;;;;;;;;;;5046564;28;4627;-36
2024/01/02 12:14:10;;;;;;;;;;;;;;;;;;5048156;28;5052;-40
2024/01/02 12:16:36;;;;;;;;;;;;;;;;;;5051224;28;5132;-38
2024/01/02 12:19:02;;;;;;;;;;;;;;;;;;5046280;28;5050;-37
2024/01/02 12:21:28;;;;;;;;;;;;;;;;;;5045543;28;4545;-36
2024/01/02 12:23:53;;;;;;;;;;;;;;;;;;5039696;28;1300;-43
2024/01/02 12:26:22;;;;;;;;;;;;;;;;;;5048212;28;5014;-39
2024/01/02 12:28:48;;;;;;;;;;;;;;;;;;5046606;28;5021;-39
2024/01/02 12:31:22;;;;;;;;;;;;;;;;;;5043210;28;4556;-40
2024/01/02 12:33:48;;;;;;;;;;;;;;;;;;5041272;28;4618;-37
2024/01/02 12:36:20;;;;;;;;;;;;;;;;;;5040240;28;4706;-39
2024/01/02 12:38:50;;;;;;;;;;;;;;;;;;5060470;28;3313;-38
2024/01/02 12:41:20;;;;;;;;;;;;;;;;;;5041751;28;4649;-38
2024/01/02 12:43:48;;;;;;;;;;;;;;;;;;5047737;28;4473;-38
2024/01/02 12:46:14;;;;;;;;;;;;;;;;;;5046155;28;4702;-39
2024/01/02 12:48:44;;;;;;;;;;;;;;;;;;5046087;28;5058;-39
2024/01/02 12:51:09;;;;;;;;;;;;;;;;;;5043633;28;3350;-39
2024/01/02 12:53:35;;;;;;;;;;;;;;;;;;5048817;28;4602;-39
2024/01/02 12:56:02;;;;;;;;;;;;;;;;;;5047737;28;5006;-39
2024/01/02 12:58:31;;;;;;;;;;;;;;;;;;5042573;28;4905;-38
2024/01/02 13:00:57;;;;;;;;;;;;;;;;;;5049458;28;5176;-39
2024/01/02 13:03:23;;;;;;;;;;;;;;;;;;5050298;28;5035;-39
2024/01/02 13:05:48;;;;;;;;;;;;;;;;;;5046160;28;3422;-38
2024/01/02 13:08:17;;;;;;;;;;;;;;;;;;5046519;28;5139;-39
2024/01/02 13:10:43;;;;;;;;;;;;;;;;;;5040288;28;5105;-38
2024/01/02 13:13:08;;;;;;;;;;;;;;;;;;5042358;28;5127;-38
2024/01/02 13:15:34;;;;;;;;;;;;;;;;;;5051455;28;5380;-39
2024/01/02 13:18:01;;;;;;;;;;;;;;;;;;5047438;28;1097;-39
2024/01/02 13:20:27;;;;;;;;;;;;;;;;;;5041798;28;5183;-39
2024/01/02 13:22:52;;;;;;;;;;;;;;;;;;5051897;28;5056;-38
2024/01/02 13:25:18;;;;;;;;;;;;;;;;;;5043189;28;5104;-37
2024/01/02 13:27:45;;;;;;;;;;;;;;;;;;5037705;28;5814;-38
2024/01/02 13:30:11;;;;;;;;;;;;;;;;;;5043506;28;3330;-40
2024/01/02 13:32:36;;;;;;;;;;;;;;;;;;5044861;28;4471;-37
2024/01/02 13:35:15;;;;;;;;;;;;;;;;;;5040915;28;5369;-40
2024/01/02 13:37:40;;;;;;;;;;;;;;;;;;5040355;28;5081;-39
2024/01/02 13:40:15;;;;;;;;;;;;;;;;;;5035061;28;5107;-39
2024/01/02 13:42:41;;;;;;;;;;;;;;;;;;5030947;28;5146;-38
2024/01/02 13:45:07;;;;;;;;;;;;;;;;;;5040580;28;3357;-38
2024/01/02 13:47:33;;;;;;;;;;;;;;;;;;5042583;28;5016;-38
2024/01/02 13:49:59;;;;;;;;;;;;;;;;;;5028567;28;5278;-38
2024/01/02 13:52:26;;;;;;;;;;;;;;;;;;5041852;28;5040;-40
2024/01/02 13:54:53;;;;;;;;;;;;;;;;;;5042840;28;4717;-37
2024/01/02 13:57:47;;;;;;;;;;;;;;;;;;5041166;28;5031;-39
2024/01/02 14:00:15;;;;;;;;;;;;;;;;;;5036550;28;3563;-38
2024/01/02 14:02:47;;;;;;;;;;;;;;;;;;5049716;28;5949;-39
2024/01/02 14:05:12;;;;;;;;;;;;;;;;;;5042662;28;4870;-39
2024/01/02 14:07:41;;;;;;;;;;;;;;;;;;5052377;28;5058;-38
2024/01/02 14:10:07;;;;;;;;;;;;;;;;;;5038417;28;5184;-38
2024/01/02 14:12:38;;;;;;;;;;;;;;;;;;5029388;28;5013;-41
2024/01/02 14:15:08;;;;;;;;;;;;;;;;;;5027349;28;3306;-42
2024/01/02 14:17:36;;;;;;;;;;;;;;;;;;5043983;28;4652;-42
2024/01/02 14:20:06;;;;;;;;;;;;;;;;;;5024224;28;5096;-40
2024/01/02 14:22:42;;;;;;;;;;;;;;;;;;5027640;28;4677;-41
2024/01/02 14:25:23;;;;;;;;;;;;;;;;;;5045575;28;5126;-38
2024/01/02 14:27:55;;;;;;;;;;;;;;;;;;5030228;28;5284;-38
2024/01/02 14:30:36;;;;;;;;;;;;;;;;;;5042604;28;4634;-39
2024/01/02 14:33:04;;;;;;;;;;;;;;;;;;5044661;28;3957;-40
2024/01/02 14:35:42;;;;;;;;;;;;;;;;;;5057178;28;4831;-37
2024/01/02 14:38:11;;;;;;;;;;;;;;;;;;5048899;28;5178;-37
2024/01/02 14:40:45;;;;;;;;;;;;;;;;;;5053433;28;5205;-38
2024/01/02 14:43:18;;;;;;;;;;;;;;;;;;5046907;28;4551;-39
2024/01/02 14:45:49;;;;;;;;;;;;;;;;;;5052014;28;4740;-40
2024/01/02 14:48:24;;;;;;;;;;;;;;;;;;5043150;28;5869;-37
2024/01/02 14:51:04;;;;;;;;;;;;;;;;;;5049090;28;1165;-37
2024/01/02 14:53:30;;;;;;;;;;;;;;;;;;5047431;28;4817;-37
2024/01/02 14:56:00;;;;;;;;;;;;;;;;;;5051682;28;5022;-40
2024/01/02 14:58:25;;;;;;;;;;;;;;;;;;5038062;28;4553;-44
2024/01/02 15:01:03;;;;;;;;;;;;;;;;;;5036826;28;4724;-41
2024/01/02 15:03:47;;;;;;;;;;;;;;;;;;5045357;28;5286;-40
2024/01/02 15:06:13;;;;;;;;;;;;;;;;;;5045882;28;3456;-42
2024/01/02 15:08:57;;;;;;;;;;;;;;;;;;5043831;28;5515;-45
2024/01/02 15:11:22;;;;;;;;;;;;;;;;;;5036608;28;5047;-42
2024/01/02 15:14:03;;;;;;;;;;;;;;;;;;5041041;28;4648;-42
2024/01/02 15:16:34;;;;;;;;;;;;;;;;;;5038100;28;4977;-40
2024/01/02 15:19:00;;;;;;;;;;;;;;;;;;5039804;28;5057;-43
2024/01/02 15:21:30;;;;;;;;;;;;;;;;;;5043471;28;4962;-42
2024/01/02 15:24:11;;;;;;;;;;;;;;;;;;5039208;28;3418;-40
2024/01/02 15:26:37;;;;;;;;;;;;;;;;;;5041776;28;5079;-43
2024/01/02 15:29:12;;;;;;;;;;;;;;;;;;5042647;28;5120;-42
2024/01/02 15:31:42;;;;;;;;;;;;;;;;;;5040303;28;4663;-41
2024/01/02 15:34:26;;;;;;;;;;;;;;;;;;5038861;28;5161;-42
2024/01/02 15:37:00;;;;;;;;;;;;;;;;;;5035044;28;5089;-46
2024/01/02 15:39:27;;;;;;;;;;;;;;;;;;5041561;28;4990;-43
2024/01/02 15:41:59;;;;;;;;;;;;;;;;;;5044345;28;3444;-44
2024/01/02 15:44:43;;;;;;;;;;;;;;;;;;5038924;28;4489;-44
2024/01/02 15:47:17;;;;;;;;;;;;;;;;;;5041167;28;5024;-43
2024/01/02 15:49:48;;;;;;;;;;;;;;;;;;5041299;28;5075;-43
2024/01/02 15:52:14;;;;;;;;;;;;;;;;;;5040153;28;4550;-42
2024/01/02 15:54:40;;;;;;;;;;;;;;;;;;5040513;28;5100;-40
2024/01/02 15:57:07;;;;;;;;;;;;;;;;;;5038093;28;3665;-42
2024/01/02 15:59:36;;;;;;;;;;;;;;;;;;5057773;28;5002;-42
2024/01/02 16:02:20;;;;;;;;;;;;;;;;;;5034334;28;5270;-46
2024/01/02 16:05:00;;;;;;;;;;;;;;;;;;5037171;28;5031;-45
2024/01/02 16:07:44;;;;;;;;;;;;;;;;;;5031652;28;5001;-47
2024/01/02 16:10:10;;;;;;;;;;;;;;;;;;5054698;28;5050;-41
2024/01/02 16:12:39;;;;;;;;;;;;;;;;;;5036045;28;5008;-44
2024/01/02 16:15:10;;;;;;;;;;;;;;;;;;5046198;28;3364;-43
2024/01/02 16:17:42;;;;;;;;;;;;;;;;;;5044143;28;4704;-47
2024/01/02 16:20:07;;;;;;;;;;;;;;;;;;5041039;28;4973;-44
2024/01/02 16:22:40;;;;;;;;;;;;;;;;;;5037079;28;4922;-44
2024/01/02 16:25:05;;;;;;;;;;;;;;;;;;5038204;28;5013;-45
2024/01/02 16:27:34;;;;;;;;;;;;;;;;;;5039828;28;4955;-44
2024/01/02 16:30:33;;;;;;;;;;;;;;;;;;5025226;28;1279;-43
2024/01/02 16:33:01;;;;;;;;;;;;;;;;;;5016773;28;4920;-45
2024/01/02 16:35:27;;;;;;;;;;;;;;;;;;5042420;28;5116;-46
2024/01/02 16:38:01;;;;;;;;;;;;;;;;;;5043582;28;4507;-41
2024/01/02 16:40:32;;;;;;;;;;;;;;;;;;5038725;28;5134;-45
2024/01/02 16:42:58;;;;;;;;;;;;;;;;;;5043246;28;5197;-47
2024/01/02 16:45:23;;;;;;;;;;;;;;;;;;5039134;28;5166;-41
2024/01/02 16:47:48;;;;;;;;;;;;;;;;;;5038907;28;3564;-41
2024/01/02 16:50:13;;;;;;;;;;;;;;;;;;5031757;28;5027;-45
2024/01/02 16:52:40;;;;;;;;;;;;;;;;;;5038611;28;4761;-51
2024/01/02 16:55:08;;;;;;;;;;;;;;;;;;5034801;28;5003;-41
2024/01/02 16:57:35;;;;;;;;;;;;;;;;;;5039697;28;5223;-43
2024/01/02 17:00:05;;;;;;;;;;;;;;;;;;5034625;28;3537;-42
2024/01/02 17:02:30;;;;;;;;;;;;;;;;;;5034850;28;5142;-50
2024/01/02 17:04:59;;;;;;;;;;;;;;;;;;5033498;28;5067;-50
2024/01/02 17:07:24;;;;;;;;;;;;;;;;;;5044575;28;4740;-46
2024/01/02 17:09:50;;;;;;;;;;;;;;;;;;5034838;28;5040;-45